createdAt,value
2019-02-06T11:08:50.846Z,77.9
2019-02-06T11:10:51.326Z,74.6
2019-02-06T11:12:50.553Z,76.4
2019-02-06T11:14:50.777Z,75.5
2019-02-06T11:16:50.952Z,73.8
2019-02-06T11:18:51.855Z,67
2019-02-06T11:20:50.273Z,68
2019-02-06T11:22:50.432Z,68
2019-02-06T11:24:50.696Z,68
2019-02-06T11:26:51.318Z,68
2019-02-06T11:28:50.774Z,68
2019-02-06T11:30:51.018Z,68
2019-02-06T11:32:50.169Z,69
2019-02-06T11:34:50.737Z,69
2019-02-06T11:36:50.889Z,69
2019-02-06T11:38:50.008Z,69
2019-02-06T11:40:50.170Z,69
2019-02-06T11:42:50.418Z,69
2019-02-06T11:44:50.581Z,69
2019-02-06T11:46:50.738Z,69
2019-02-06T11:48:50.889Z,69
2019-02-06T11:50:50.059Z,69
2019-02-06T11:52:50.294Z,69
2019-02-06T11:54:50.385Z,69
2019-02-06T11:56:51.219Z,69
2019-02-06T11:58:50.436Z,69
2019-02-06T12:00:50.531Z,69
2019-02-06T12:02:50.882Z,69
2019-02-06T12:04:51.681Z,69
2019-02-06T12:06:50.223Z,69
2019-02-06T12:08:50.302Z,69
2019-02-06T12:10:50.419Z,69
2019-02-06T12:12:50.590Z,69
2019-02-06T12:14:50.703Z,69
2019-02-06T12:16:50.037Z,69
2019-02-06T12:18:50.134Z,69
2019-02-06T12:20:50.292Z,69
2019-02-06T12:22:50.445Z,69
2019-02-06T12:24:50.666Z,69
2019-02-06T12:26:50.881Z,69
2019-02-06T12:28:49.986Z,69
2019-02-06T12:30:50.153Z,68
2019-02-06T12:32:53.184Z,69
2019-02-06T12:34:52.317Z,69
2019-02-06T12:36:50.842Z,69
2019-02-06T12:38:54.462Z,69
2019-02-06T12:40:50.673Z,69
2019-02-06T12:42:50.905Z,69
2019-02-06T12:44:50.106Z,69
2019-02-06T12:46:50.393Z,69
2019-02-06T12:48:52.466Z,69
2019-02-06T12:50:50.958Z,68
2019-02-06T12:52:50.039Z,68
2019-02-06T12:54:50.168Z,68
2019-02-06T12:56:50.180Z,68
2019-02-06T12:58:50.493Z,68
2019-02-06T13:00:50.614Z,68
2019-02-06T13:02:50.704Z,68
2019-02-06T13:04:50.118Z,68
2019-02-06T13:06:50.392Z,68
2019-02-06T13:08:50.522Z,68
2019-02-06T13:10:51.597Z,68
2019-02-06T13:12:50.779Z,68
2019-02-06T13:14:50.934Z,68
2019-02-06T13:16:50.144Z,68
2019-02-06T13:18:52.012Z,68
2019-02-06T13:20:52.220Z,68
2019-02-06T13:22:50.474Z,69.7
2019-02-06T13:24:50.659Z,68
2019-02-06T13:26:52.735Z,71.8
2019-02-06T13:28:50.197Z,67
2019-02-06T13:30:50.308Z,67
2019-02-06T13:32:50.455Z,67
2019-02-06T13:34:50.848Z,67
2019-02-06T13:36:50.196Z,67
2019-02-06T13:38:50.338Z,67
2019-02-06T13:40:50.499Z,67
2019-02-06T13:42:50.772Z,67
2019-02-06T13:44:50.265Z,67
2019-02-06T13:46:54.191Z,67
2019-02-06T13:48:50.517Z,67
2019-02-06T13:50:50.795Z,67
2019-02-06T13:52:50.876Z,67
2019-02-06T13:54:50.064Z,67
2019-02-06T13:56:51.097Z,67
2019-02-06T13:58:50.252Z,67
2019-02-06T14:00:53.312Z,66
2019-02-06T14:02:50.561Z,66
2019-02-06T14:04:52.460Z,66
2019-02-06T14:06:50.941Z,66
2019-02-06T14:08:50.191Z,66
2019-02-06T14:11:01.645Z,66
2019-02-06T14:12:52.634Z,66
2019-02-06T14:14:50.033Z,66
2019-02-06T14:16:50.305Z,66
2019-02-06T14:18:50.432Z,66
2019-02-06T14:20:50.546Z,66
2019-02-06T14:22:50.706Z,66
2019-02-06T14:24:50.958Z,66
2019-02-06T14:26:50.300Z,65
2019-02-06T14:28:50.458Z,65
2019-02-06T14:30:50.055Z,65
2019-02-06T14:32:50.472Z,65
2019-02-06T14:34:50.377Z,65
2019-02-06T14:36:50.931Z,65
2019-02-06T14:38:50.074Z,65
2019-02-06T14:40:50.215Z,65
2019-02-06T14:42:50.694Z,65
2019-02-06T14:44:53.224Z,65
2019-02-06T14:46:50.479Z,65
2019-02-06T14:48:50.806Z,65
2019-02-06T14:50:51.119Z,65
2019-02-06T14:52:50.829Z,65
2019-02-06T14:54:50.131Z,65
2019-02-06T14:56:50.493Z,65
2019-02-06T14:58:50.018Z,65
2019-02-06T15:01:03.144Z,65
2019-02-06T15:02:50.006Z,65
2019-02-06T15:04:50.213Z,65
2019-02-06T15:06:50.238Z,65
2019-02-06T15:08:50.266Z,65
2019-02-06T15:10:50.268Z,69.8
2019-02-06T15:12:50.255Z,70.2
2019-02-06T15:14:50.289Z,71.6
2019-02-06T15:16:50.461Z,72.9
2019-02-06T15:18:50.465Z,74.3
2019-02-06T15:20:50.464Z,74.4
2019-02-06T15:22:51.068Z,75.2
2019-02-06T15:24:50.138Z,75.6
2019-02-06T15:26:50.256Z,76.7
2019-02-06T15:28:50.224Z,77.0
2019-02-06T15:30:51.105Z,77.5
2019-02-06T15:32:50.496Z,78.2
2019-02-06T15:34:50.652Z,79.0
2019-02-06T15:36:50.723Z,79.0
2019-02-06T15:38:52.029Z,78.8
2019-02-06T15:40:50.242Z,79.8
2019-02-06T15:42:49.915Z,79.9
2019-02-06T15:44:49.836Z,80.6
2019-02-06T15:46:51.905Z,80.9
